createdAt,value
2022-12-24T00:02:05.993Z,29.20
2022-12-24T00:04:34.201Z,26.70
2022-12-24T00:07:02.299Z,24.70
2022-12-24T00:09:30.334Z,22.70
2022-12-24T00:11:58.680Z,21.20
2022-12-24T00:14:46.975Z,21.20
2022-12-24T00:17:15.108Z,25.70
2022-12-24T00:19:43.370Z,24.50
2022-12-24T00:22:11.313Z,28.60
2022-12-24T00:24:46.336Z,26.70
2022-12-24T00:27:22.308Z,22.10
2022-12-24T00:29:51.259Z,19.60
2022-12-24T00:32:19.186Z,19.30
2022-12-24T00:34:48.711Z,19.00
2022-12-24T00:37:36.118Z,19.90
2022-12-24T00:40:11.401Z,19.00
2022-12-24T00:42:39.431Z,17.80
2022-12-24T00:45:08.187Z,17.20
2022-12-24T00:47:36.455Z,16.90
2022-12-24T00:50:07.267Z,17.20
2022-12-24T00:52:35.647Z,20.50
2022-12-24T00:55:04.148Z,21.10
2022-12-24T00:57:35.475Z,24.70
2022-12-24T01:00:04.936Z,21.50
2022-12-24T01:02:33.135Z,19.80
2022-12-24T01:05:13.281Z,18.70
2022-12-24T01:07:45.049Z,20.30
2022-12-24T01:10:16.106Z,19.50
2022-12-24T01:12:45.128Z,18.70
2022-12-24T01:15:22.769Z,22.30
2022-12-24T01:17:50.912Z,19.60
2022-12-24T01:20:19.114Z,19.20
2022-12-24T01:22:48.910Z,17.80
2022-12-24T01:25:16.893Z,16.20
2022-12-24T01:27:44.898Z,16.30
2022-12-24T01:30:15.114Z,16.20
2022-12-24T01:32:46.404Z,14.80
2022-12-24T01:35:22.387Z,15.40
2022-12-24T01:37:58.361Z,16.50
2022-12-24T01:40:45.909Z,16.00
2022-12-24T01:43:26.525Z,17.00
2022-12-24T01:46:04.972Z,16.90
2022-12-24T01:48:44.817Z,17.70
2022-12-24T01:51:12.841Z,18.40
2022-12-24T01:53:45.338Z,17.60
2022-12-24T01:56:14.838Z,17.80
2022-12-24T01:58:48.447Z,18.70
2022-12-24T02:01:16.986Z,23.00
2022-12-24T02:03:45.180Z,22.40
2022-12-24T02:07:33.059Z,20.50
2022-12-24T02:10:02.104Z,22.30
2022-12-24T02:12:48.952Z,20.40
2022-12-24T02:15:22.857Z,18.60
2022-12-24T02:18:29.869Z,18.70
2022-12-24T02:21:23.180Z,22.80
2022-12-24T02:24:23.802Z,20.50
2022-12-24T02:27:49.835Z,23.10
2022-12-24T02:30:42.173Z,21.10
2022-12-24T02:33:23.096Z,19.90
2022-12-24T02:36:12.703Z,19.10
2022-12-24T02:39:01.826Z,18.70
2022-12-24T02:45:18.111Z,16.90
2022-12-24T02:48:40.966Z,17.80
2022-12-24T02:54:41.301Z,17.10
2022-12-24T02:57:48.757Z,17.90
2022-12-24T03:00:22.831Z,17.70
2022-12-24T03:02:56.864Z,19.20
2022-12-24T03:05:41.389Z,18.10
2022-12-24T03:08:47.892Z,20.10
2022-12-24T03:11:16.382Z,23.60
2022-12-24T03:13:44.907Z,23.80
2022-12-24T03:16:21.407Z,23.80
2022-12-24T03:18:51.901Z,22.20
2022-12-24T03:21:31.510Z,23.50
2022-12-24T03:23:59.769Z,23.70
2022-12-24T03:26:30.092Z,24.10
2022-12-24T03:28:58.007Z,22.60
2022-12-24T03:31:26.254Z,22.50
2022-12-24T03:33:54.302Z,23.80
2022-12-24T03:36:24.164Z,21.20
2022-12-24T03:42:57.918Z,15.70
2022-12-24T03:45:26.020Z,15.70
2022-12-24T03:47:54.080Z,14.10
2022-12-24T03:50:22.108Z,13.10
2022-12-24T03:52:50.110Z,12.40
2022-12-24T03:55:18.162Z,12.80
2022-12-24T03:57:46.216Z,13.40
2022-12-24T04:00:14.657Z,12.90
2022-12-24T04:02:42.728Z,13.50
2022-12-24T04:05:17.750Z,11.80
2022-12-24T04:07:46.795Z,12.70
2022-12-24T04:10:15.830Z,12.90
2022-12-24T04:12:49.496Z,13.40
2022-12-24T04:15:17.578Z,12.90
2022-12-24T04:17:45.537Z,14.00
2022-12-24T04:20:13.531Z,15.00
2022-12-24T04:22:42.330Z,13.70
2022-12-24T04:29:30.999Z,15.50
2022-12-24T04:31:59.078Z,14.80
2022-12-24T04:34:27.643Z,15.00
2022-12-24T04:36:55.581Z,15.80
2022-12-24T04:39:23.655Z,15.60
2022-12-24T04:41:51.769Z,16.00
2022-12-24T04:44:19.730Z,15.30
2022-12-24T04:46:47.734Z,16.80
2022-12-24T04:49:15.653Z,17.30
2022-12-24T04:51:43.608Z,18.30
2022-12-24T04:54:11.570Z,17.30
2022-12-24T04:56:47.558Z,15.00
2022-12-24T04:59:22.633Z,15.60
2022-12-24T05:01:50.795Z,15.60
2022-12-24T05:04:18.809Z,15.40
2022-12-24T05:06:46.755Z,17.20
2022-12-24T05:09:14.672Z,17.20
2022-12-24T05:11:42.588Z,15.70
2022-12-24T05:14:10.679Z,17.20
2022-12-24T05:16:38.928Z,16.10
2022-12-24T05:19:07.035Z,15.60
2022-12-24T05:21:35.231Z,17.30
2022-12-24T05:24:21.838Z,16.30
2022-12-24T05:26:53.690Z,17.90
2022-12-24T05:29:22.451Z,17.20
2022-12-24T05:31:50.753Z,17.00
2022-12-24T05:34:18.733Z,17.60
2022-12-24T05:36:47.099Z,16.20
2022-12-24T05:39:17.446Z,18.60
2022-12-24T05:41:48.161Z,18.80
2022-12-24T05:44:16.949Z,17.60
2022-12-24T05:46:45.450Z,18.80
2022-12-24T05:49:15.365Z,17.30
2022-12-24T05:51:43.388Z,18.90
2022-12-24T05:54:11.436Z,18.00
2022-12-24T05:56:39.451Z,18.40
2022-12-24T05:59:07.467Z,17.50
2022-12-24T06:01:36.004Z,19.20
2022-12-24T06:04:04.386Z,17.50
2022-12-24T06:06:32.797Z,19.60
2022-12-24T06:09:01.877Z,19.20
2022-12-24T06:11:30.194Z,18.80
2022-12-24T06:13:58.419Z,20.10
2022-12-24T06:16:27.094Z,19.00
2022-12-24T06:18:55.326Z,20.30
2022-12-24T06:21:23.287Z,19.60
2022-12-24T06:23:52.315Z,20.50
2022-12-24T06:26:22.855Z,20.50
2022-12-24T06:28:51.934Z,21.30
2022-12-24T06:31:22.769Z,19.00
2022-12-24T06:33:51.625Z,19.30
2022-12-24T06:36:23.111Z,19.90
2022-12-24T06:38:51.785Z,22.70
2022-12-24T06:41:20.660Z,21.20
2022-12-24T06:43:50.885Z,20.30
2022-12-24T06:46:20.215Z,20.50
2022-12-24T06:48:48.420Z,20.80
2022-12-24T06:51:19.977Z,19.70
2022-12-24T06:53:50.866Z,18.40
2022-12-24T06:56:20.784Z,18.20
2022-12-24T06:58:49.253Z,18.00
2022-12-24T07:01:19.606Z,18.60
2022-12-24T07:03:48.439Z,17.90
2022-12-24T07:06:34.546Z,19.00
2022-12-24T07:09:02.485Z,20.30
2022-12-24T07:11:30.420Z,20.30
2022-12-24T07:13:58.332Z,23.30
2022-12-24T07:16:26.527Z,22.70
2022-12-24T07:18:54.570Z,19.00
2022-12-24T07:21:22.589Z,22.30
2022-12-24T07:23:50.557Z,22.60
2022-12-24T07:26:18.514Z,21.60
2022-12-24T07:28:46.461Z,20.00
2022-12-24T07:31:14.741Z,18.50
2022-12-24T07:33:43.013Z,23.30
2022-12-24T07:36:18.270Z,23.10
2022-12-24T07:38:46.547Z,18.90
2022-12-24T07:41:44.389Z,18.20
2022-12-24T07:44:16.110Z,19.40
2022-12-24T07:46:45.183Z,16.00
2022-12-24T07:49:13.388Z,15.50
2022-12-24T07:51:41.403Z,14.20
2022-12-24T07:54:10.800Z,13.90
2022-12-24T07:56:38.756Z,15.50
2022-12-24T07:59:10.575Z,14.10
2022-12-24T08:01:38.763Z,21.40
2022-12-24T08:04:07.398Z,24.70
2022-12-24T08:06:35.458Z,20.80
2022-12-24T08:09:03.839Z,21.00
2022-12-24T08:11:31.832Z,19.90
2022-12-24T08:13:59.832Z,21.90
2022-12-24T08:16:28.117Z,18.60
2022-12-24T08:18:56.167Z,18.20
2022-12-24T08:21:24.090Z,16.10
2022-12-24T08:23:51.997Z,17.00
2022-12-24T08:26:19.941Z,17.60
2022-12-24T08:28:47.927Z,16.30
2022-12-24T08:31:16.171Z,13.60
2022-12-24T08:33:44.141Z,15.30
2022-12-24T08:36:12.069Z,14.70
2022-12-24T08:38:40.131Z,15.30
2022-12-24T08:41:08.226Z,16.70
2022-12-24T08:43:36.307Z,18.00
2022-12-24T08:46:06.420Z,20.30
2022-12-24T08:48:35.269Z,19.00
2022-12-24T08:51:08.777Z,15.60
2022-12-24T08:53:37.768Z,19.90
2022-12-24T08:56:08.674Z,19.30
2022-12-24T08:58:38.993Z,15.30
2022-12-24T09:01:12.752Z,15.90
2022-12-24T09:03:42.140Z,17.30
2022-12-24T09:06:10.951Z,17.30
2022-12-24T09:08:39.691Z,15.90
2022-12-24T09:11:11.131Z,16.00
2022-12-24T09:13:39.468Z,14.50
2022-12-24T09:16:08.888Z,13.50
2022-12-24T09:18:37.489Z,16.40
2022-12-24T09:21:16.585Z,13.00
2022-12-24T09:23:47.145Z,15.60
2022-12-24T09:26:21.358Z,14.90
2022-12-24T09:28:51.122Z,14.80
2022-12-24T09:31:19.440Z,14.20
2022-12-24T09:33:49.349Z,18.90
2022-12-24T09:36:18.145Z,21.60
2022-12-24T09:38:46.419Z,19.20
2022-12-24T09:41:24.803Z,19.80
2022-12-24T09:44:31.057Z,17.20
2022-12-24T09:47:06.739Z,14.80
2022-12-24T09:49:43.965Z,13.60
2022-12-24T09:52:18.572Z,19.70
2022-12-24T09:54:56.995Z,14.70
2022-12-24T09:57:40.297Z,15.90
2022-12-24T10:00:20.996Z,14.70
2022-12-24T10:02:49.156Z,15.20
2022-12-24T10:05:21.504Z,17.60
2022-12-24T10:08:15.088Z,14.90
2022-12-24T10:10:55.645Z,20.70
2022-12-24T10:13:23.639Z,20.80
2022-12-24T10:16:08.580Z,21.00
2022-12-24T10:18:53.371Z,21.90
2022-12-24T10:24:16.805Z,20.20
2022-12-24T10:26:59.081Z,22.90
2022-12-24T10:29:34.786Z,20.60
2022-12-24T10:32:08.854Z,18.50
2022-12-24T10:34:43.164Z,22.40
2022-12-24T10:37:17.608Z,21.80
2022-12-24T10:39:45.604Z,19.10
2022-12-24T10:42:14.935Z,19.10
2022-12-24T10:44:48.071Z,19.80
2022-12-24T10:47:18.093Z,15.50
2022-12-24T10:49:53.082Z,16.40
2022-12-24T10:52:28.980Z,16.40
2022-12-24T10:55:17.283Z,19.20
2022-12-24T10:57:47.453Z,15.40
2022-12-24T11:00:21.481Z,15.60
2022-12-24T11:03:05.274Z,15.30
2022-12-24T11:09:41.367Z,16.50
2022-12-24T11:12:35.103Z,17.60
2022-12-24T11:19:31.511Z,14.30
2022-12-24T11:22:06.052Z,16.50
2022-12-24T11:24:37.500Z,16.90
2022-12-24T11:27:49.669Z,19.50
2022-12-24T11:30:32.184Z,14.40
2022-12-24T11:33:03.415Z,17.20
2022-12-24T11:35:33.955Z,15.20
2022-12-24T11:38:05.122Z,15.60
2022-12-24T11:41:02.255Z,17.40
2022-12-24T11:43:51.229Z,14.30
2022-12-24T11:46:35.550Z,14.80
2022-12-24T11:49:21.724Z,15.50
2022-12-24T11:52:16.724Z,17.30
2022-12-24T11:55:16.212Z,18.90
2022-12-24T11:58:03.901Z,14.70
2022-12-24T12:00:31.821Z,15.20
2022-12-24T12:03:02.500Z,22.30
2022-12-24T12:05:33.800Z,20.00
2022-12-24T12:08:15.986Z,22.60
2022-12-24T12:10:46.593Z,22.70
2022-12-24T12:13:19.247Z,22.30
2022-12-24T12:16:07.797Z,21.90
2022-12-24T12:18:39.291Z,23.90
2022-12-24T12:21:14.932Z,19.70
2022-12-24T12:24:01.918Z,27.30
2022-12-24T12:26:32.248Z,20.70
2022-12-24T12:29:32.675Z,21.60
2022-12-24T12:32:07.412Z,22.20
2022-12-24T12:34:42.739Z,29.70
2022-12-24T12:37:37.047Z,28.50
2022-12-24T12:40:14.857Z,33.60
2022-12-24T12:43:04.279Z,34.20
2022-12-24T12:45:37.238Z,42.80
2022-12-24T12:48:20.498Z,42.90
2022-12-24T12:51:09.383Z,31.10
2022-12-24T12:54:02.343Z,36.90
2022-12-24T12:56:36.495Z,41.10
2022-12-24T12:59:07.899Z,38.20
2022-12-24T13:01:59.335Z,32.00
2022-12-24T13:04:58.019Z,23.80
2022-12-24T13:07:37.656Z,25.90
2022-12-24T13:10:28.691Z,24.30
2022-12-24T13:13:20.705Z,40.10
2022-12-24T13:15:58.095Z,33.00
2022-12-24T13:18:44.923Z,30.20
2022-12-24T13:21:18.892Z,26.60
2022-12-24T13:23:48.161Z,23.60
2022-12-24T13:26:24.517Z,18.70
2022-12-24T13:28:52.595Z,20.00
2022-12-24T13:31:20.586Z,14.70
2022-12-24T13:33:56.915Z,13.90
2022-12-24T13:37:01.914Z,15.60
2022-12-24T13:40:01.510Z,14.70
2022-12-24T13:43:07.280Z,15.40
2022-12-24T13:45:45.384Z,16.40
2022-12-24T13:48:25.494Z,15.80
2022-12-24T13:50:55.990Z,16.40
2022-12-24T13:53:41.262Z,16.50
2022-12-24T13:56:25.350Z,16.10
2022-12-24T13:59:11.095Z,17.90
2022-12-24T14:01:42.449Z,17.80
2022-12-24T14:04:27.105Z,16.90
2022-12-24T14:06:59.295Z,16.20
2022-12-24T14:09:28.977Z,16.80
2022-12-24T14:11:59.957Z,18.00
2022-12-24T14:14:36.000Z,18.50
2022-12-24T14:17:28.098Z,20.00
2022-12-24T14:20:01.758Z,21.20
2022-12-24T14:22:43.285Z,19.70
2022-12-24T14:25:17.035Z,20.30
2022-12-24T14:27:50.682Z,18.30
2022-12-24T14:30:24.291Z,21.00
2022-12-24T14:32:53.257Z,23.50
2022-12-24T14:35:35.579Z,36.00
2022-12-24T14:38:06.671Z,31.00
2022-12-24T14:40:41.947Z,48.60
2022-12-24T14:43:23.851Z,41.20
2022-12-24T14:46:14.548Z,36.60
2022-12-24T14:48:52.272Z,26.40
2022-12-24T14:51:43.089Z,23.40
2022-12-24T14:54:14.205Z,20.90
2022-12-24T14:56:42.223Z,19.20
2022-12-24T14:59:17.836Z,18.20
2022-12-24T15:01:46.894Z,19.90
2022-12-24T15:04:17.204Z,17.30
2022-12-24T15:06:56.899Z,16.00
2022-12-24T15:09:29.516Z,17.00
2022-12-24T15:12:00.953Z,16.70
2022-12-24T15:14:32.058Z,17.50
2022-12-24T15:17:04.630Z,16.90
2022-12-24T15:19:45.048Z,15.50
2022-12-24T15:22:25.027Z,13.80
2022-12-24T15:24:53.078Z,15.30
2022-12-24T15:27:26.743Z,14.50
2022-12-24T15:29:57.797Z,17.70
2022-12-24T15:32:25.764Z,15.80
2022-12-24T15:34:55.456Z,16.90
2022-12-24T15:37:29.914Z,17.20
2022-12-24T15:40:18.856Z,19.00
2022-12-24T15:42:46.903Z,20.70
2022-12-24T15:45:29.784Z,16.90
2022-12-24T15:48:01.737Z,23.10
2022-12-24T15:50:38.207Z,17.90
2022-12-24T15:53:20.481Z,22.60
2022-12-24T15:56:09.916Z,21.10
2022-12-24T15:58:41.386Z,25.30
2022-12-24T16:01:09.641Z,22.70
2022-12-24T16:03:41.029Z,29.30
2022-12-24T16:06:11.967Z,27.10
2022-12-24T16:08:41.839Z,22.50
2022-12-24T16:11:20.513Z,24.80
2022-12-24T16:13:51.713Z,24.10
2022-12-24T16:16:22.561Z,21.00
2022-12-24T16:18:57.972Z,23.30
2022-12-24T16:21:43.110Z,21.10
2022-12-24T16:24:18.786Z,21.80
2022-12-24T16:26:48.185Z,21.80
2022-12-24T16:29:17.215Z,23.50
2022-12-24T16:31:50.602Z,22.40
2022-12-24T16:34:28.486Z,22.80
2022-12-24T16:36:57.677Z,21.50
2022-12-24T16:39:31.247Z,23.70
2022-12-24T16:42:20.301Z,23.30
2022-12-24T16:44:48.603Z,24.90
2022-12-24T16:47:28.710Z,23.70
2022-12-24T16:49:57.474Z,24.00
2022-12-24T16:52:29.060Z,24.40
2022-12-24T16:54:57.581Z,24.80
2022-12-24T16:57:26.643Z,24.10
2022-12-24T16:59:55.606Z,22.70
2022-12-24T17:02:25.396Z,22.90
2022-12-24T17:04:55.149Z,24.50
2022-12-24T17:07:23.531Z,22.80
2022-12-24T17:09:51.637Z,25.40
2022-12-24T17:12:21.839Z,25.60
2022-12-24T17:14:50.035Z,27.90
2022-12-24T17:17:29.567Z,25.10
2022-12-24T17:19:58.396Z,26.90
2022-12-24T17:22:54.708Z,26.80
2022-12-24T17:25:27.382Z,27.70
2022-12-24T17:28:00.411Z,25.90
2022-12-24T17:30:29.650Z,25.60
2022-12-24T17:33:14.955Z,28.70
2022-12-24T17:35:44.202Z,24.80
2022-12-24T17:38:12.184Z,23.90
2022-12-24T17:40:40.146Z,25.50
2022-12-24T17:43:09.638Z,27.50
2022-12-24T17:45:42.540Z,29.40
2022-12-24T17:48:12.830Z,33.20
2022-12-24T17:50:44.960Z,34.40
2022-12-24T17:53:13.713Z,30.50
2022-12-24T17:55:43.715Z,30.20
2022-12-24T17:58:12.089Z,37.20
2022-12-24T18:00:40.054Z,38.70
2022-12-24T18:03:12.530Z,36.00
2022-12-24T18:05:40.656Z,45.80
2022-12-24T18:08:08.625Z,45.80
2022-12-24T18:10:36.693Z,31.60
2022-12-24T18:13:05.037Z,29.70
2022-12-24T18:15:35.328Z,30.00
2022-12-24T18:18:04.192Z,33.90
2022-12-24T18:20:36.100Z,50.40
2022-12-24T18:23:06.531Z,53.00
2022-12-24T18:25:34.507Z,55.60
2022-12-24T18:28:02.544Z,35.60
2022-12-24T18:30:30.556Z,31.70
2022-12-24T18:33:00.450Z,28.10
2022-12-24T18:35:28.929Z,25.40
2022-12-24T18:37:56.884Z,26.20
2022-12-24T18:40:29.452Z,23.80
2022-12-24T18:42:57.404Z,27.20
2022-12-24T18:45:25.327Z,27.20
2022-12-24T18:52:09.419Z,27.00
2022-12-24T18:54:38.771Z,28.70
2022-12-24T18:57:07.524Z,27.50
2022-12-24T18:59:36.609Z,29.50
2022-12-24T19:02:05.184Z,26.30
2022-12-24T19:04:35.307Z,26.40
2022-12-24T19:07:03.384Z,27.10
2022-12-24T19:09:31.400Z,26.10
2022-12-24T19:11:59.409Z,24.90
2022-12-24T19:14:27.296Z,26.50
2022-12-24T19:16:55.260Z,26.80
2022-12-24T19:19:24.585Z,42.90
2022-12-24T19:21:52.540Z,29.00
2022-12-24T19:24:20.483Z,29.30
2022-12-24T19:26:49.032Z,28.80
2022-12-24T19:29:16.978Z,29.70
2022-12-24T19:31:47.477Z,27.70
2022-12-24T19:34:15.869Z,28.40
2022-12-24T19:36:43.827Z,26.80
2022-12-24T19:39:11.942Z,25.60
2022-12-24T19:41:39.909Z,27.40
2022-12-24T19:44:07.852Z,24.00
2022-12-24T19:46:36.958Z,24.30
2022-12-24T19:49:07.603Z,26.40
2022-12-24T19:51:36.150Z,26.00
2022-12-24T19:54:06.099Z,26.90
2022-12-24T19:56:34.741Z,26.70
2022-12-24T19:59:03.191Z,24.50
2022-12-24T20:01:33.509Z,25.60
2022-12-24T20:04:02.439Z,25.90
2022-12-24T20:06:33.619Z,24.80
2022-12-24T20:09:07.643Z,26.00
2022-12-24T20:11:35.988Z,26.80
2022-12-24T20:14:05.800Z,24.30
2022-12-24T20:16:34.746Z,24.30
2022-12-24T20:19:05.397Z,25.50
2022-12-24T20:21:33.695Z,26.60
2022-12-24T20:24:01.624Z,27.40
2022-12-24T20:26:30.021Z,26.30
2022-12-24T20:28:58.294Z,25.70
2022-12-24T20:31:29.300Z,26.50
2022-12-24T20:33:58.621Z,30.80
2022-12-24T20:36:28.516Z,28.50
2022-12-24T20:38:57.962Z,34.80
2022-12-24T20:41:28.106Z,34.20
2022-12-24T20:43:58.772Z,33.30
2022-12-24T20:46:28.363Z,30.70
2022-12-24T20:48:57.790Z,36.60
2022-12-24T20:51:27.323Z,31.00
2022-12-24T20:53:58.280Z,31.80
2022-12-24T20:56:26.708Z,33.90
2022-12-24T20:58:55.085Z,32.50
2022-12-24T21:01:25.957Z,33.90
2022-12-24T21:03:55.927Z,38.50
2022-12-24T21:06:24.980Z,40.80
2022-12-24T21:08:53.805Z,37.30
2022-12-24T21:11:41.349Z,35.80
2022-12-24T21:14:10.426Z,37.90
2022-12-24T21:16:39.456Z,32.00
2022-12-24T21:19:09.608Z,31.20
2022-12-24T21:21:39.095Z,37.90
2022-12-24T21:24:18.334Z,31.80
2022-12-24T21:26:49.152Z,31.60
2022-12-24T21:29:18.196Z,29.20
2022-12-24T21:34:20.127Z,26.70
2022-12-24T21:36:48.361Z,25.00
2022-12-24T21:39:16.334Z,25.40
2022-12-24T21:41:44.335Z,27.50
2022-12-24T21:44:14.987Z,28.40
2022-12-24T21:46:43.043Z,28.20
2022-12-24T21:49:29.615Z,41.30
2022-12-24T21:53:11.249Z,33.90
2022-12-24T21:55:39.236Z,32.30
2022-12-24T21:58:07.295Z,30.80
2022-12-24T22:00:35.579Z,28.30
2022-12-24T22:03:03.704Z,29.40
2022-12-24T22:05:33.558Z,31.10
2022-12-24T22:08:40.494Z,30.50
2022-12-24T22:11:31.343Z,28.70
2022-12-24T22:14:00.139Z,27.80
2022-12-24T22:16:28.328Z,27.30
2022-12-24T22:18:56.695Z,27.90
2022-12-24T22:21:24.617Z,27.10
2022-12-24T22:23:52.507Z,27.10
2022-12-24T22:26:20.547Z,29.30
2022-12-24T22:28:48.498Z,30.60
2022-12-24T22:31:21.806Z,30.00
2022-12-24T22:33:50.769Z,30.40
2022-12-24T22:36:18.706Z,34.70
2022-12-24T22:38:46.685Z,33.20
2022-12-24T22:41:14.706Z,35.30
2022-12-24T22:43:43.119Z,37.20
2022-12-24T22:46:13.563Z,39.10
2022-12-24T22:48:42.839Z,38.70
2022-12-24T22:51:14.571Z,36.80
2022-12-24T22:53:43.006Z,36.90
2022-12-24T22:56:21.971Z,36.40
2022-12-24T22:58:54.436Z,35.90
2022-12-24T23:01:37.792Z,36.30
2022-12-24T23:04:06.700Z,38.00
2022-12-24T23:06:35.348Z,35.90
2022-12-24T23:09:05.972Z,35.10
2022-12-24T23:11:34.229Z,34.20
2022-12-24T23:14:20.703Z,34.10
2022-12-24T23:16:48.582Z,32.30
2022-12-24T23:19:16.815Z,31.70
2022-12-24T23:21:44.730Z,30.90
2022-12-24T23:24:12.813Z,33.00
2022-12-24T23:26:40.832Z,30.90
2022-12-24T23:29:09.782Z,32.20
2022-12-24T23:31:37.900Z,27.30
2022-12-24T23:34:06.043Z,28.70
2022-12-24T23:36:34.050Z,26.80
2022-12-24T23:39:02.025Z,26.60
2022-12-24T23:41:30.003Z,26.70
2022-12-24T23:43:57.933Z,27.30
2022-12-24T23:46:25.905Z,27.70
2022-12-24T23:48:55.359Z,25.10
2022-12-24T23:51:25.978Z,24.60
2022-12-24T23:53:55.627Z,25.50
2022-12-24T23:56:25.036Z,28.10
2022-12-24T23:58:52.999Z,29.10
